Stormwatcher's Retreat Logo




                  Temp     Hi    Low   Out    Dew  Wind  Wind   Wind    Hi    Hi   Wind   Heat    THW   THSW                Rain  Solar   Solar Hi Solar   UV    UV    Hi     Heat    Cool    In     In    In     In     In   In Air          Wind  Wind    ISS   Arc.
  Date    Time     Out   Temp   Temp   Hum    Pt. Speed   Dir    Run Speed   Dir  Chill  Index  Index  Index   Bar    Rain  Rate   Rad.  Energy    Rad.  Index  Dose   UV     D-D     D-D    Temp   Hum    Dew   Heat    EMC Density     ET   Samp   Tx   Recept  Int.
------------------------------------------------------------------------------------------------------------------------------------------------------------------------------------------------------------------------------------------------------------------------
 7/28/21 12:10a   52.6   53.0   52.6    94   50.9   3.0   ENE   0.50   5.0   ENE   52.6   52.9   52.9   49.8  30.115  0.00  0.00     0     0.00      0     0.0  0.00   0.0   0.086   0.000   66.9    65   54.7   66.9  11.91  .0748    0.000   200    7    100.0   10 
 7/28/21 12:20a   52.5   52.7   52.5    95   51.1   4.0    NE   0.67   8.0   NNE   51.8   52.8   52.1   49.1  30.112  0.00  0.00     0     0.00      0     0.0  0.00   0.0   0.087   0.000   67.0    65   54.8   67.0  11.91  .0747    0.000   204    7    100.0   10 
 7/28/21 12:30a   52.5   52.5   52.4    95   51.1   5.0   ENE   0.83  10.0   NNE   51.2   52.8   51.5   48.5  30.114  0.00  0.00     0     0.00      0     0.0  0.00   0.0   0.087   0.000   66.9    64   54.3   66.8  11.71  .0748    0.000   203    7    100.0   10 
 7/28/21 12:40a   52.0   52.5   52.0    95   50.6   5.0   ENE   0.83  10.0   NNE   50.6   52.3   50.9   47.8  30.115  0.00  0.00     0     0.00      0     0.0  0.00   0.0   0.090   0.000   66.6    64   54.0   66.4  11.72  .0748    0.000   204    7    100.0   10 
 7/28/21 12:50a   51.8   52.0   51.8    95   50.4   6.0    NE   1.00  10.0   NNE   49.8   52.1   50.1   47.0  30.114  0.00  0.00     0     0.00      0     0.0  0.00   0.0   0.092   0.000   66.4    64   53.8   66.2  11.72  .0749    0.000   202    7    100.0   10 
 7/28/21  1:00a   51.4   51.8   51.4    95   50.0   5.0   ENE   0.83   9.0   ENE   49.9   51.8   50.3   47.2  30.113  0.00  0.00     0     0.00      0     0.0  0.00   0.0   0.094   0.000   66.0    64   53.5   65.7  11.73  .0749    0.000   204    7    100.0   10 
 7/28/21  1:10a   51.1   51.4   51.1    95   49.7   3.0   ENE   0.50   5.0   ENE   50.9   51.5   51.3   48.2  30.115  0.00  0.00     0     0.00      0     0.0  0.00   0.0   0.097   0.000   66.1    65   54.0   65.9  11.93  .0749    0.000   203    7    100.0   10 
 7/28/21  1:20a   51.1   51.1   50.9    96   50.0   3.0   ENE   0.50   6.0   ENE   50.9   51.5   51.3   48.2  30.111  0.00  0.00     0     0.00      0     0.0  0.00   0.0   0.097   0.000   66.4    65   54.3   66.3  11.92  .0748    0.000   204    7    100.0   10 
 7/28/21  1:30a   51.4   51.5   51.1    95   50.0   2.0   ENE   0.33   4.0   ENE   51.4   51.8   51.8   48.7  30.111  0.00  0.00     0     0.00      0     0.0  0.00   0.0   0.094   0.000   66.8    65   54.7   66.8  11.91  .0748    0.000   204    7    100.0   10 
 7/28/21  1:40a   50.9   51.4   50.9    95   49.5   3.0   ENE   0.50   5.0   ENE   50.7   51.3   51.1   48.0  30.111  0.00  0.00     0     0.00      0     0.0  0.00   0.0   0.098   0.000   66.9    64   54.3   66.8  11.71  .0748    0.000   204    7    100.0   10 
 7/28/21  1:50a   50.7   50.9   50.7    95   49.3   3.0   ENE   0.50   4.0   ENE   50.5   51.1   50.9   47.8  30.109  0.00  0.00     0     0.00      0     0.0  0.00   0.0   0.099   0.000   67.0    64   54.4   66.9  11.71  .0748    0.000   201    7    100.0   10 
 7/28/21  2:00a   50.5   50.7   50.4    95   49.1   2.0   ENE   0.33   7.0     E   50.5   51.0   51.0   47.9  30.109  0.00  0.00     0     0.00      0     0.0  0.00   0.0   0.101   0.000   67.2    64   54.6   67.1  11.71  .0747    0.000   203    7    100.0   10 
 7/28/21  2:10a   50.0   50.4   50.0    95   48.6   3.0     E   0.50   5.0    NE   49.7   50.5   50.2   47.0  30.110  0.00  0.00     0     0.00      0     0.0  0.00   0.0   0.104   0.000   67.3    64   54.7   67.3  11.70  .0747    0.000   203    7    100.0   10 
 7/28/21  2:20a   49.9   50.1   49.9    96   48.8   3.0   ENE   0.50   6.0   ENE   49.6   50.4   50.1   46.9  30.106  0.00  0.00     0     0.00      0     0.0  0.00   0.0   0.105   0.000   67.3    63   54.3   67.2  11.60  .0747    0.000   202    7    100.0   10 
 7/28/21  2:30a   50.0   50.1   49.9    96   48.9   3.0   ENE   0.50   8.0   ENE   49.7   50.5   50.2   47.0  30.106  0.00  0.00     0     0.00      0     0.0  0.00   0.0   0.104   0.000   67.3    63   54.3   67.2  11.60  .0747    0.000   204    7    100.0   10 
 7/28/21  2:40a   50.3   50.3   50.1    96   49.2   2.0   ENE   0.33   5.0   ENE   50.3   50.8   50.8   47.7  30.106  0.00  0.00     0     0.00      0     0.0  0.00   0.0   0.102   0.000   67.3    63   54.3   67.2  11.60  .0747    0.000   203    7    100.0   10 
 7/28/21  2:50a   50.3   50.4   50.3    96   49.2   2.0   ENE   0.33   5.0    NE   50.3   50.8   50.8   47.7  30.107  0.00  0.00     0     0.00      0     0.0  0.00   0.0   0.102   0.000   67.4    63   54.4   67.3  11.60  .0747    0.000   203    7    100.0   10 
 7/28/21  3:00a   50.0   50.3   50.0    96   48.9   3.0    NE   0.50   6.0   ENE   49.7   50.5   50.2   47.0  30.109  0.00  0.00     0     0.00      0     0.0  0.00   0.0   0.104   0.000   67.3    63   54.3   67.2  11.60  .0747    0.000   204    7    100.0   10 
 7/28/21  3:10a   49.7   50.0   49.7    96   48.6   3.0    NE   0.50   6.0   NNE   49.3   50.2   49.8   46.6  30.112  0.00  0.00     0     0.00      0     0.0  0.00   0.0   0.106   0.000   67.3    63   54.3   67.2  11.60  .0747    0.000   203    7    100.0   10 
 7/28/21  3:20a   49.4   49.6   49.4    96   48.3   2.0   ENE   0.33   4.0   ENE   49.4   49.9   49.9   46.7  30.113  0.00  0.00     0     0.00      0     0.0  0.00   0.0   0.108   0.000   67.4    63   54.4   67.3  11.60  .0747    0.000   204    7    100.0   10 
 7/28/21  3:30a   49.6   49.6   49.4    96   48.5   1.0   ENE   0.17   3.0   ENE   49.6   50.1   50.1   46.9  30.112  0.00  0.00     0     0.00      0     0.0  0.00   0.0   0.107   0.000   67.4    63   54.4   67.3  11.60  .0747    0.000   202    7    100.0   10 
 7/28/21  3:40a   49.2   49.6   49.2    96   48.1   2.0    NE   0.33   4.0   ENE   49.2   49.7   49.7   46.5  30.112  0.00  0.00     0     0.00      0     0.0  0.00   0.0   0.110   0.000   67.4    63   54.4   67.3  11.60  .0747    0.000   201    7    100.0   10 
 7/28/21  3:50a   49.1   49.3   49.1    96   48.0   1.0    NE   0.17   4.0    NE   49.1   49.6   49.6   46.4  30.114  0.00  0.00     0     0.00      0     0.0  0.00   0.0   0.110   0.000   67.5    63   54.5   67.4  11.60  .0747    0.000   202    7    100.0   10 
 7/28/21  4:00a   49.0   49.2   49.0    96   47.9   2.0    NE   0.33   4.0    NE   49.0   49.5   49.5   46.3  30.114  0.00  0.00     0     0.00      0     0.0  0.00   0.0   0.111   0.000   67.5    62   54.0   67.3  11.40  .0747    0.000   201    7    100.0   10 
 7/28/21  4:10a   49.1   49.1   49.0    96   48.0   1.0    NE   0.17   3.0    NE   49.1   49.6   49.6   46.4  30.112  0.00  0.00     0     0.00      0     0.0  0.00   0.0   0.110   0.000   67.5    62   54.0   67.3  11.40  .0747    0.000   200    7    100.0   10 
 7/28/21  4:20a   49.3   49.3   49.0    96   48.2   1.0    NE   0.17   3.0    NE   49.3   49.8   49.8   46.6  30.118  0.00  0.00     0     0.00      0     0.0  0.00   0.0   0.109   0.000   67.5    62   54.0   67.3  11.40  .0747    0.000   205    7    100.0   10 
 7/28/21  4:30a   49.4   49.4   49.3    96   48.3   1.0    NE   0.17   3.0    NE   49.4   49.9   49.9   46.7  30.119  0.00  0.00     0     0.00      0     0.0  0.00   0.0   0.108   0.000   67.6    62   54.1   67.4  11.40  .0747    0.000   203    7    100.0   10 
 7/28/21  4:40a   49.4   49.5   49.3    96   48.3   2.0    NE   0.33   3.0    NE   49.4   49.9   49.9   46.7  30.112  0.00  0.00     0     0.00      0     0.0  0.00   0.0   0.108   0.000   67.6    62   54.1   67.4  11.40  .0747    0.000   204    7    100.0   10 
 7/28/21  4:50a   49.2   49.3   49.2    96   48.1   3.0   ENE   0.50   4.0    NE   48.7   49.7   49.2   46.0  30.111  0.00  0.00     0     0.00      0     0.0  0.00   0.0   0.110   0.000   67.5    61   53.6   67.2  11.25  .0747    0.000   203    7    100.0   10 
 7/28/21  5:00a   49.0   49.2   49.0    96   47.9   3.0   ENE   0.50   4.0   ENE   48.5   49.5   49.0   45.8  30.108  0.00  0.00     0     0.00      0     0.0  0.00   0.0   0.111   0.000   67.4    61   53.5   67.1  11.25  .0747    0.000   204    7    100.0   10 
 7/28/21  5:10a   49.0   49.1   48.9    96   47.9   2.0   ENE   0.33   3.0   ENE   49.0   49.5   49.5   46.3  30.107  0.00  0.00     0     0.00      0     0.0  0.00   0.0   0.111   0.000   67.3    61   53.4   67.0  11.25  .0747    0.000   201    7    100.0   10 
 7/28/21  5:20a   48.8   49.0   48.7    96   47.7   2.0   ENE   0.33   4.0   ENE   48.8   49.3   49.3   46.1  30.108  0.00  0.00     0     0.00      0     0.0  0.00   0.0   0.113   0.000   67.3    61   53.4   67.0  11.25  .0747    0.000   203    7    100.0   10 
 7/28/21  5:30a   48.8   48.8   48.7    97   48.0   2.0   ENE   0.33   5.0     E   48.8   49.3   49.3   46.1  30.108  0.00  0.00     0     0.00      0     0.0  0.00   0.0   0.113   0.000   67.3    61   53.4   67.0  11.25  .0747    0.000   202    7    100.0   10 
 7/28/21  5:40a   49.5   49.5   48.8    97   48.7   3.0   ENE   0.50   5.0    NE   49.1   50.1   49.7   46.5  30.114  0.00  0.00     0     0.00      0     0.0  0.00   0.0   0.108   0.000   67.3    61   53.4   67.0  11.25  .0748    0.000   204    7    100.0   10 
 7/28/21  5:50a   49.4   49.5   49.3    97   48.6   2.0   ENE   0.33   5.0   ENE   49.4   50.0   50.0   46.8  30.113  0.00  0.00     0     0.00      0     0.0  0.00   0.0   0.108   0.000   67.2    61   53.3   66.8  11.25  .0748    0.000   203    7    100.0   10 
 7/28/21  6:00a   49.7   49.7   49.4    97   48.9   1.0   ENE   0.17   3.0   ENE   49.7   50.3   50.3   47.1  30.117  0.00  0.00     0     0.00      0     0.0  0.00   0.0   0.106   0.000   67.3    61   53.4   67.0  11.25  .0748    0.000   204    7    100.0   10 
 7/28/21  6:10a   49.5   49.6   49.4    97   48.7   1.0   ENE   0.17   3.0   ENE   49.5   50.1   50.1   47.0  30.112  0.00  0.00     5     0.07      7     0.0  0.00   0.0   0.108   0.000   67.3    61   53.4   67.0  11.25  .0748    0.000   202    7    100.0   10 
 7/28/21  6:20a   49.9   49.9   49.5    97   49.1   2.0   ENE   0.33   3.0   ENE   49.9   50.5   50.5   47.6  30.112  0.00  0.00     9     0.13     11     0.0  0.00   0.0   0.105   0.000   67.4    61   53.5   67.1  11.25  .0747    0.000   204    7    100.0   10 
 7/28/21  6:30a   50.0   50.0   49.8    97   49.2   1.0   ENE   0.17   3.0   ENE   50.0   50.6   50.6   47.7  30.109  0.00  0.00    12     0.17     12     0.0  0.00   0.0   0.104   0.000   67.4    61   53.5   67.1  11.25  .0747    0.000   202    7    100.0   10 
 7/28/21  6:40a   50.2   50.2   50.0    97   49.4   0.0   ENE   0.00   2.0   ENE   50.2   50.8   50.8   48.0  30.110  0.00  0.00    14     0.20     16     0.0  0.00   0.0   0.103   0.000   67.5    61   53.6   67.2  11.25  .0747    0.000   200    7    100.0   10 
 7/28/21  6:50a   49.7   50.2   49.7    96   48.6   2.0   ENE   0.33   4.0   ENE   49.7   50.2   50.2   49.0  30.111  0.00  0.00    18     0.26     18     0.0  0.00   0.0   0.106   0.000   67.5    61   53.6   67.2  11.25  .0747    0.000   201    7    100.0   10 
 7/28/21  7:00a   49.7   49.8   49.7    97   48.9   3.0   ENE   0.50   5.0    NE   49.3   50.3   49.9   48.9  30.115  0.00  0.00    23     0.33     28     0.0  0.00   0.0   0.106   0.000   67.6    61   53.7   67.3  11.25  .0747    0.000   204    7    100.0   10 
 7/28/21  7:10a   49.5   49.6   49.4    97   48.7   5.0    NE   0.83   9.0    NE   47.6   50.1   48.2   47.8  30.116  0.00  0.00    36     0.52     40     0.0  0.00   0.0   0.108   0.000   67.3    60   52.9   66.9  11.05  .0748    0.000   203    7    100.0   10 
 7/28/21  7:20a   49.5   49.6   49.4    97   48.7   5.0    NE   0.83   9.0   NNE   47.6   50.1   48.2   48.2  30.117  0.00  0.00    45     0.65     49     0.0  0.00   0.0   0.108   0.000   67.0    60   52.7   66.5  11.05  .0748    0.000   203    7    100.0   10 
 7/28/21  7:30a   49.9   49.9   49.5    97   49.1   5.0   ENE   0.83   9.0    NE   48.1   50.5   48.7   48.9  30.116  0.00  0.00    51     0.73     53     0.0  0.00   0.0   0.105   0.000   66.7    60   52.4   66.1  11.05  .0749    0.000   204    7    100.0   10 
 7/28/21  7:40a   50.3   50.3   49.9    97   49.5   3.0   ENE   0.50   5.0    NE   50.0   50.9   50.6   50.8  30.118  0.00  0.00    54     0.77     54     0.0  0.00   0.0   0.102   0.000   66.6    60   52.3   66.0  11.05  .0749    0.000   203    7    100.0   10 
 7/28/21  7:50a   50.1   50.3   50.1    97   49.3   4.0   ENE   0.67   9.0   NNE   49.0   50.7   49.6   50.1  30.117  0.00  0.00    62     0.89     67     0.0  0.00   0.0   0.103   0.000   66.4    60   52.1   65.8  11.05  .0749    0.000   202    7    100.0   10 
 7/28/21  8:00a   50.6   50.6   50.1    97   49.8   5.0   ENE   0.83   9.0    NE   48.9   51.1   49.4   49.8  30.119  0.00  0.00    63     0.90    109     0.0  0.00   0.0   0.100   0.000   66.2    60   51.9   65.5  11.05  .0750    0.001   204    7    100.0   10 
 7/28/21  8:10a   49.8   50.7   49.8    97   49.0   8.0    NE   1.33  13.0    NE   46.3   50.4   46.9   47.8  30.121  0.00  0.00    81     1.16    120     0.2  0.01   0.5   0.106   0.000   65.6    60   51.3   64.9  11.05  .0751    0.000   203    7    100.0   10 
 7/28/21  8:20a   50.3   50.3   49.7    98   49.8   6.0   ENE   1.00  12.0   NNE   48.1   50.9   48.7   53.4  30.121  0.00  0.00   196     2.81    332     0.5  0.04   0.7   0.102   0.000   65.8    62   52.4   65.3  11.43  .0750    0.000   203    7    100.0   10 
 7/28/21  8:30a   51.0   51.0   50.4    97   50.2   5.0   ENE   0.83  10.0   NNE   49.4   51.5   49.9   54.7  30.123  0.00  0.00   204     2.92    285     0.7  0.05   0.7   0.097   0.000   66.2    61   52.3   65.6  11.25  .0750    0.000   202    7    100.0   10 
 7/28/21  8:40a   50.8   51.1   50.8    97   50.0   7.0    NE   1.17  13.0    NE   48.2   51.3   48.7   54.3  30.121  0.00  0.00   244     3.50    350     0.8  0.06   0.9   0.099   0.000   66.5    61   52.6   66.0  11.25  .0749    0.000   203    7    100.0   10 
 7/28/21  8:50a   50.5   50.9   50.5    96   49.4   9.0    NE   1.50  16.0    NE   46.5   51.0   47.0   52.8  30.121  0.00  0.00   276     3.96    364     0.9  0.06   1.0   0.101   0.000   66.8    61   52.9   66.4  11.25  .0749    0.000   203    7    100.0   10 
 7/28/21  9:00a   50.6   50.6   50.5    97   49.8  10.0    NE   1.67  15.0     N   46.0   51.1   46.5   48.2  30.120  0.00  0.00   123     1.76    294     0.9  0.06   1.1   0.100   0.000   67.0    61   53.1   66.6  11.25  .0748    0.004   202    7    100.0   10 
 7/28/21  9:10a   51.5   51.6   50.6    97   50.7   9.0    NE   1.50  13.0    NE   47.7   51.9   48.1   48.7  30.120  0.00  0.00    90     1.29    102     1.0  0.07   1.1   0.094   0.000   67.1    61   53.2   66.7  11.25  .0748    0.000   204    7    100.0   10 
 7/28/21  9:20a   51.9   51.9   51.6    97   51.1   9.0    NE   1.50  14.0   NNE   48.1   52.3   48.5   49.5  30.120  0.00  0.00   105     1.51    111     1.1  0.08   1.2   0.091   0.000   67.3    61   53.4   67.0  11.25  .0748    0.000   205    7    100.0   10 
 7/28/21  9:30a   51.2   51.8   51.2    96   50.1   9.0    NE   1.50  14.0    NE   47.3   51.6   47.7   48.7  30.118  0.00  0.00   109     1.56    114     1.2  0.09   1.3   0.096   0.000   67.4    61   53.5   67.1  11.25  .0748    0.000   202    7    100.0   10 
 7/28/21  9:40a   51.3   51.3   51.1    96   50.2   9.0    NE   1.50  14.0   ENE   47.4   51.7   47.8   48.0  30.117  0.00  0.00    80     1.15     97     1.3  0.09   1.3   0.095   0.000   67.4    60   53.0   67.0  11.05  .0748    0.000   203    7    100.0   10 
 7/28/21  9:50a   51.5   51.5   51.3    97   50.7  10.0    NE   1.67  14.0    NE   47.1   51.9   47.5   47.1  30.118  0.00  0.00    59     0.85     67     1.3  0.09   1.4   0.094   0.000   67.5    60   53.1   67.1  11.05  .0748    0.000   202    7    100.0   10 
 7/28/21 10:00a   51.4   51.6   51.4    96   50.3  11.0    NE   1.83  18.0     N   46.4   51.8   46.8   46.3  30.115  0.00  0.00    55     0.79     58     0.4  0.03   1.4   0.094   0.000   67.6    60   53.2   67.2  11.05  .0747    0.002   201    7    100.0   10 
 7/28/21 10:10a   51.3   51.5   51.3    96   50.2  12.0    NE   2.00  18.0   NNE   45.8   51.7   46.2   45.7  30.116  0.00  0.00    57     0.82     67     0.9  0.06   1.6   0.095   0.000   67.6    60   53.2   67.2  11.05  .0747    0.000   204    7    100.0   10 
 7/28/21 10:20a   51.9   52.0   51.3    96   50.8  12.0    NE   2.00  18.0    NE   46.5   52.3   46.9   54.4  30.111  0.00  0.00   501     7.18    675     2.2  0.16   2.9   0.091   0.000   67.7    60   53.3   67.3  11.05  .0747    0.000   202    7    100.0   10 
 7/28/21 10:30a   52.4   52.4   51.7    96   51.3  12.0    NE   2.00  18.0   NNE   47.0   52.7   47.3   55.6  30.112  0.00  0.00   590     8.46    722     2.6  0.19   3.4   0.087   0.000   67.7    60   53.3   67.3  11.05  .0747    0.000   203    7    100.0   10 
 7/28/21 10:40a   52.8   52.8   52.4    95   51.4  12.0    NE   2.00  17.0   NNE   47.5   53.1   47.8   56.6  30.113  0.00  0.00   720    10.32    722     3.5  0.25   3.6   0.085   0.000   67.8    60   53.4   67.5  11.05  .0747    0.000   200    7    100.0   10 
 7/28/21 10:50a   52.8   52.9   52.7    95   51.4  12.0    NE   2.00  18.0   ENE   47.5   53.1   47.8   56.7  30.114  0.00  0.00   733    10.51    747     3.7  0.26   3.9   0.085   0.000   67.8    60   53.4   67.5  11.05  .0747    0.000   202    7    100.0   10 
 7/28/21 11:00a   53.3   53.4   52.8    95   51.9  11.0    NE   1.83  17.0    NE   48.6   53.6   48.9   58.0  30.110  0.00  0.00   771    11.05    812     4.1  0.29   4.3   0.081   0.000   67.9    60   53.5   67.6  11.05  .0747    0.011   202    7    100.0   10 
 7/28/21 11:10a   53.3   53.4   53.2    94   51.6  12.0    NE   2.00  18.0    NE   48.1   53.5   48.3   57.1  30.113  0.00  0.00   792    11.35    837     4.3  0.31   4.5   0.081   0.000   68.0    60   53.6   67.7  11.05  .0747    0.000   204    7    100.0   10 
 7/28/21 11:20a   53.4   53.8   53.3    94   51.7  11.0    NE   1.83  16.0   NNE   48.7   53.6   48.9   57.1  30.115  0.00  0.00   585     8.39    789     3.9  0.28   4.4   0.081   0.000   68.2    60   53.8   67.8  11.05  .0746    0.000   202    7    100.0   10 
 7/28/21 11:30a   53.5   53.6   53.3    94   51.8  13.0    NE   2.17  19.0    NE   47.8   53.7   48.0   56.7  30.117  0.00  0.00   775    11.11    919     4.4  0.31   4.9   0.080   0.000   68.3    60   53.9   67.9  11.05  .0746    0.000   203    7    100.0   10 
 7/28/21 11:40a   53.5   53.5   53.3    94   51.8  12.0   NNE   2.00  19.0    NE   48.3   53.7   48.5   57.0  30.121  0.00  0.00   930    13.33    979     4.9  0.35   5.3   0.080   0.000   68.4    60   54.0   68.0  11.05  .0746    0.000   201    7    100.0   10 
 7/28/21 11:50a   54.4   54.4   53.5    93   52.4  11.0   ENE   1.83  18.0    NE   49.9   54.6   50.1   58.4  30.123  0.00  0.00   900    12.90    926     5.2  0.37   5.4   0.074   0.000   68.6    60   54.2   68.1  11.05  .0746    0.000   204    7    100.0   10 
 7/28/21 12:00p   54.8   54.9   54.4    93   52.8  13.0    NE   2.17  19.0     N   49.4   55.0   49.6   57.4  30.123  0.00  0.00   914    13.10    958     5.3  0.38   5.7   0.071   0.000   68.7    60   54.3   68.2  11.05  .0746    0.015   200    7    100.0   10 
 7/28/21 12:10p   54.7   54.8   54.6    92   52.4  13.0    NE   2.17  21.0    NE   49.2   54.8   49.3   57.7  30.123  0.00  0.00   877    12.57    940     4.9  0.35   5.7   0.072   0.000   68.8    60   54.3   68.3  11.05  .0745    0.000   203    7    100.0   10 
 7/28/21 12:20p   55.1   55.1   54.7    93   53.1  12.0   ENE   2.00  19.0   NNE   50.1   55.3   50.3   59.4  30.121  0.00  0.00   750    10.75    988     5.1  0.36   5.9   0.069   0.000   67.4    58   52.1   66.8  10.75  .0748    0.000   203    7    100.0   10 
 7/28/21 12:30p   55.7   55.8   55.1    92   53.4  13.0    NE   2.17  22.0    NE   50.4   55.8   50.5   58.3  30.120  0.00  0.00   915    13.12   1009     5.6  0.40   6.1   0.065   0.000   64.7    63   51.8   64.2  11.65  .0752    0.000   204    7    100.0   10 
 7/28/21 12:40p   55.1   55.7   55.1    92   52.8  13.0    NE   2.17  20.0    NE   49.7   55.2   49.8   57.9  30.123  0.00  0.00   910    13.05    933     5.1  0.36   6.1   0.069   0.000   63.1    65   51.1   62.5  11.99  .0755    0.000   203    7    100.0   10 
 7/28/21 12:50p   55.4   55.6   55.1    91   52.8  13.0    NE   2.17  22.0     N   50.0   55.5   50.1   57.5  30.120  0.00  0.00   930    13.33   1032     5.4  0.39   6.3   0.067   0.000   61.9    67   50.8   61.3  12.51  .0756    0.000   204    7    100.0   10 
 7/28/21  1:00p   55.3   55.4   55.1    91   52.7  13.0    NE   2.17  19.0    NE   49.9   55.4   50.0   58.9  30.126  0.00  0.00   787    11.28   1060     5.7  0.41   6.5   0.067   0.000   61.2    69   50.9   60.6  12.97  .0758    0.016   201    7    100.0   10 
 7/28/21  1:10p   55.4   55.5   55.2    92   53.1  12.0    NE   2.00  20.0   NNE   50.5   55.5   50.6   58.9  30.123  0.00  0.00   621     8.90    877     4.5  0.32   5.8   0.067   0.000   60.9    70   51.0   60.3  13.27  .0758    0.000   205    7    100.0   10 
 7/28/21  1:20p   56.3   56.3   55.4    91   53.7  12.0    NE   2.00  19.0   NNE   51.5   56.4   51.6   60.8  30.119  0.00  0.00   761    10.91   1185     5.2  0.37   7.1   0.060   0.000   60.9    70   51.0   60.3  13.27  .0758    0.000   203    7    100.0   10 
 7/28/21  1:30p   55.5   56.3   55.5    91   52.9  13.0    NE   2.17  20.0    NE   50.2   55.6   50.3   57.1  30.118  0.00  0.00   497     7.12    559     4.5  0.32   5.4   0.066   0.000   60.7    70   50.9   60.1  13.26  .0758    0.000   204    7    100.0   10 
 7/28/21  1:40p   55.3   55.5   55.1    91   52.7  12.0    NE   2.00  18.0     N   50.4   55.4   50.5   56.6  30.122  0.00  0.00   431     6.18    473     4.6  0.33   7.0   0.067   0.000   60.4    71   51.0   59.8  13.46  .0759    0.000   204    7    100.0   10 
 7/28/21  1:50p   56.3   56.3   55.2    92   54.0  12.0    NE   2.00  22.0    NE   51.5   56.4   51.6   60.5  30.119  0.00  0.00   888    12.73   1195     5.3  0.38   6.7   0.060   0.000   60.3    72   51.2   59.8  13.75  .0759    0.000   203    7    100.0   10 
 7/28/21  2:00p   58.4   58.4   56.4    91   55.8  13.0   ENE   2.17  21.0     N   53.4   58.6   53.6   62.8  30.118  0.00  0.00  1073    15.38   1118     6.1  0.44   6.7   0.046   0.000   60.7    74   52.4   60.3  14.25  .0758    0.015   204    7    100.0   10 
 7/28/21  2:10p   59.1   59.1   58.4    90   56.2  14.0   ENE   2.33  22.0    NE   53.9   59.3   54.1   62.1  30.115  0.00  0.00   968    13.88   1046     6.1  0.44   6.5   0.041   0.000   61.2    74   52.8   60.9  14.25  .0757    0.000   203    7    100.0   10 
 7/28/21  2:20p   60.0   60.0   59.1    90   57.1  13.0   ENE   2.17  23.0   NNE   55.3   60.3   55.6   63.9  30.116  0.00  0.00   957    13.72    990     5.3  0.38   6.5   0.035   0.000   61.6    75   53.6   61.4  14.59  .0756    0.000   204    7    100.0   10 
 7/28/21  2:30p   59.5   60.0   59.5    89   56.3  13.0    NE   2.17  23.0   NNE   54.7   59.7   54.9   64.1  30.112  0.00  0.00  1033    14.81   1062     5.5  0.39   6.2   0.038   0.000   61.8    73   53.1   61.5  13.99  .0756    0.000   205    7    100.0   10 
 7/28/21  2:40p   59.0   59.6   59.0    89   55.8  13.0   ENE   2.17  20.0   ENE   54.1   59.2   54.3   62.9  30.114  0.00  0.00   962    13.79   1025     5.7  0.41   6.0   0.042   0.000   61.7    73   53.0   61.4  13.98  .0756    0.000   203    7    100.0   10 
 7/28/21  2:50p   58.6   59.0   58.6    88   55.1  12.0    NE   2.00  21.0    NE   54.2   58.7   54.3   63.3  30.112  0.00  0.00   825    11.83   1005     5.2  0.37   5.9   0.044   0.000   61.6    72   52.5   61.2  13.75  .0756    0.000   204    7    100.0   10 
 7/28/21  3:00p   58.1   58.5   58.1    89   54.9  13.0    NE   2.17  19.0     N   53.1   58.2   53.2   61.8  30.110  0.00  0.00   827    11.86    918     4.5  0.32   5.5   0.048   0.000   61.3    73   52.6   60.9  13.98  .0756    0.018   205    7    100.0   10 
 7/28/21  3:10p   58.4   58.5   58.1    90   55.5  13.0   ENE   2.17  20.0     N   53.4   58.5   53.5   60.9  30.108  0.00  0.00   535     7.67    970     3.7  0.26   5.5   0.046   0.000   61.3    75   53.3   61.0  14.60  .0756    0.000   204    7    100.0   10 
 7/28/21  3:20p   58.2   58.3   58.1    90   55.3  12.0   ENE   2.00  20.0    NE   53.7   58.3   53.8   59.7  30.108  0.00  0.00   403     5.78    429     3.2  0.23   4.2   0.047   0.000   61.3    75   53.3   61.0  14.60  .0756    0.000   202    7    100.0   10 
 7/28/21  3:30p   59.2   59.3   58.2    91   56.6  11.0   ENE   1.83  20.0    NE   55.4   59.5   55.7   65.0  30.108  0.00  0.00   680     9.75    916     4.1  0.29   4.9   0.040   0.000   61.5    75   53.5   61.3  14.59  .0756    0.000   202    7    100.0   10 
 7/28/21  3:40p   59.6   59.7   59.3    90   56.7  12.0   ENE   2.00  18.0   ENE   55.3   59.9   55.6   63.9  30.107  0.00  0.00   589     8.44    715     3.5  0.25   4.2   0.038   0.000   61.8    76   54.2   61.7  14.91  .0755    0.000   202    7    100.0   10 
 7/28/21  3:50p   58.9   59.6   58.8    90   56.0  13.0    NE   2.17  19.0    NE   54.0   59.1   54.2   60.8  30.110  0.00  0.00   454     6.51    742     2.9  0.21   3.7   0.042   0.000   61.9    75   53.9   61.7  14.57  .0755    0.000   202    7    100.0   10 
 7/28/21  4:00p   58.9   59.1   58.8    90   56.0  11.0   ENE   1.83  19.0     N   55.1   59.1   55.3   61.4  30.108  0.00  0.00   386     5.53    438     2.5  0.18   2.8   0.042   0.000   61.9    75   53.9   61.7  14.57  .0755    0.012   198    7    100.0   10 
 7/28/21  4:10p   59.5   59.5   58.9    91   56.9  13.0   ENE   2.17  22.0    NE   54.7   59.8   55.0   62.5  30.106  0.00  0.00   511     7.33    918     2.9  0.21   3.9   0.038   0.000   62.0    75   54.0   61.8  14.57  .0755    0.000   204    7    100.0   10 
 7/28/21  4:20p   60.1   60.3   59.5    89   56.8  14.0    NE   2.33  22.0    NE   55.0   60.4   55.3   63.9  30.106  0.00  0.00   761    10.91    954     3.1  0.22   3.5   0.034   0.000   62.3    75   54.3   62.1  14.56  .0754    0.000   205    7    100.0   10 
 7/28/21  4:30p   58.8   60.1   58.8    89   55.6  12.0    NE   2.00  19.0    NE   54.4   58.9   54.5   60.5  30.103  0.00  0.00   371     5.32    469     2.1  0.15   2.4   0.043   0.000   62.2    73   53.4   61.9  13.99  .0755    0.000   203    7    100.0   10 
 7/28/21  4:40p   58.2   58.7   58.1    90   55.3  12.0    NE   2.00  20.0     E   53.7   58.3   53.8   59.1  30.099  0.00  0.00   323     4.63    378     1.8  0.13   1.9   0.047   0.000   61.9    74   53.5   61.6  14.25  .0755    0.000   204    7    100.0   10 
 7/28/21  4:50p   58.6   58.6   58.2    91   56.0  11.0   ENE   1.83  20.0    NE   54.7   58.8   54.9   63.2  30.100  0.00  0.00   497     7.12    633     2.1  0.15   2.4   0.044   0.000   61.8    75   53.8   61.6  14.58  .0755    0.000   203    7    100.0   10 
 7/28/21  5:00p   59.2   59.2   58.5    91   56.6  11.0    NE   1.83  21.0    NE   55.4   59.5   55.7   64.5  30.098  0.00  0.00   598     8.57    712     2.2  0.16   2.3   0.040   0.000   61.8    75   53.8   61.6  14.58  .0755    0.011   205    7    100.0   10 
 7/28/21  5:10p   59.8   59.8   59.3    90   56.9  13.0    NE   2.17  20.0    NE   55.1   60.1   55.4   64.1  30.099  0.00  0.00   620     8.89    663     2.1  0.15   2.2   0.036   0.000   62.0    75   54.0   61.8  14.57  .0755    0.000   204    7    100.0   10 
 7/28/21  5:20p   61.5   61.5   59.9    90   58.5  14.0    NE   2.33  22.0    NE   56.6   62.0   57.1   66.4  30.101  0.00  0.00   632     9.06    677     2.0  0.14   2.1   0.024   0.000   62.6    76   54.9   62.5  14.90  .0753    0.000   203    7    100.0   10 
 7/28/21  5:30p   61.7   61.8   61.6    89   58.4  15.0    NE   2.50  22.0     N   56.5   62.1   56.9   64.4  30.100  0.00  0.00   455     6.52    608     1.6  0.11   1.8   0.023   0.000   63.1    75   55.0   63.0  14.53  .0753    0.000   203    7    100.0   10 
 7/28/21  5:40p   62.0   62.0   61.7    88   58.4  13.0    NE   2.17  22.0     E   57.6   62.4   58.0   66.1  30.096  0.00  0.00   465     6.67    540     1.4  0.10   1.5   0.021   0.000   63.4    75   55.3   63.4  14.51  .0752    0.000   204    7    100.0   10 
 7/28/21  5:50p   62.0   62.2   62.0    88   58.4  12.0   ENE   2.00  21.0     N   58.0   62.4   58.4   66.4  30.096  0.00  0.00   418     5.99    533     1.1  0.08   1.3   0.021   0.000   63.7    74   55.3   63.7  14.25  .0752    0.000   202    7    100.0   10 
 7/28/21  6:00p   61.2   62.0   61.2    88   57.6  12.0    NE   2.00  21.0   NNE   57.1   61.5   57.4   61.9  30.094  0.00  0.00   218     3.13    239     0.9  0.06   0.9   0.026   0.000   63.8    73   55.0   63.7  14.03  .0751    0.011   204    7    100.0   10 
 7/28/21  6:10p   60.9   61.2   60.9    88   57.3  11.0   ENE   1.83  17.0    NE   57.4   61.2   57.7   61.9  30.092  0.00  0.00   194     2.78    234     0.7  0.05   0.8   0.028   0.000   63.7    73   54.9   63.6  14.02  .0752    0.000   201    7    100.0   10 
 7/28/21  6:20p   61.0   61.0   60.8    89   57.7  11.0    NE   1.83  20.0   NNE   57.5   61.4   57.9   63.0  30.090  0.00  0.00   222     3.18    292     0.7  0.05   0.7   0.028   0.000   63.7    74   55.3   63.7  14.25  .0751    0.000   204    7    100.0   10 
 7/28/21  6:30p   61.3   61.4   61.0    89   58.0  10.0    NE   1.67  21.0    NE   58.5   61.7   58.9   64.7  30.087  0.00  0.00   234     3.35    278     0.6  0.04   0.7   0.026   0.000   63.9    74   55.4   63.9  14.25  .0751    0.000   200    7    100.0   10 
 7/28/21  6:40p   61.9   61.9   61.3    88   58.3  10.0    NE   1.67  17.0     N   59.2   62.3   59.6   66.7  30.085  0.00  0.00   290     4.16    445     0.6  0.04   0.7   0.022   0.000   64.1    73   55.3   64.1  14.03  .0751    0.000   203    7    100.0   10 
 7/28/21  6:50p   62.2   62.2   61.9    88   58.6  11.0    NE   1.83  20.0   ENE   58.8   62.7   59.3   68.4  30.088  0.00  0.00   362     5.19    380     0.5  0.04   0.6   0.019   0.000   64.3    73   55.5   64.3  14.04  .0750    0.000   204    7    100.0   10 
 7/28/21  7:00p   62.6   62.6   62.2    87   58.7  11.0    NE   1.83  21.0    NE   59.3   63.1   59.8   67.1  30.087  0.00  0.00   293     4.20    329     0.1  0.01   0.5   0.017   0.000   64.4    73   55.6   64.5  14.04  .0750    0.007   203    7    100.0   10 
 7/28/21  7:10p   62.4   62.7   62.4    87   58.5  11.0    NE   1.83  20.0    NE   59.1   62.9   59.6   64.3  30.083  0.00  0.00   181     2.59    230     0.0  0.00   0.0   0.018   0.000   64.6    72   55.4   64.6  13.75  .0750    0.000   204    7    100.0   10 
 7/28/21  7:20p   62.2   62.5   62.2    86   58.0  10.0   ENE   1.67  20.0     N   59.5   62.6   59.9   62.6  30.087  0.00  0.00   111     1.59    171     0.0  0.00   0.0   0.019   0.000   64.8    72   55.6   64.9  13.75  .0750    0.000   203    7    100.0   10 
 7/28/21  7:30p   61.3   62.3   61.3    86   57.1  10.0   ENE   1.67  17.0   ENE   58.5   61.6   58.8   61.4  30.091  0.00  0.00   108     1.55    134     0.0  0.00   0.0   0.026   0.000   64.8    71   55.2   64.8  13.55  .0750    0.000   204    7    100.0   10 
 7/28/21  7:40p   60.1   61.3   60.0    88   56.5  10.0   ENE   1.67  18.0   ENE   57.1   60.3   57.3   57.6  30.088  0.00  0.00    44     0.63     70     0.0  0.00   0.0   0.034   0.000   64.3    72   55.1   64.3  13.75  .0751    0.000   203    7    100.0   10 
 7/28/21  7:50p   60.0   60.0   59.9    89   56.7  10.0   ENE   1.67  16.0     N   57.0   60.3   57.3   56.3  30.086  0.00  0.00    52     0.75     77     0.0  0.00   0.0   0.035   0.000   64.3    72   55.1   64.3  13.75  .0751    0.000   201    7    100.0   10 
 7/28/21  8:00p   59.4   60.0   59.4    89   56.2   8.0   ENE   1.33  16.0   ENE   57.8   59.6   58.0   56.7  30.085  0.00  0.00    40     0.57     47     0.0  0.00   0.0   0.039   0.000   65.1    71   55.5   65.2  13.55  .0749    0.003   203    7    100.0   10 
 7/28/21  8:10p   59.3   59.4   59.3    89   56.1   8.0   ENE   1.33  13.0   NNE   57.7   59.5   57.9   56.5  30.082  0.00  0.00    37     0.53     44     0.0  0.00   0.0   0.040   0.000   66.0    70   55.9   66.2  13.31  .0748    0.000   205    7    100.0   10 
 7/28/21  8:20p   59.3   59.4   59.3    89   56.1   7.0   ENE   1.17  14.0   ENE   58.4   59.5   58.6   56.9  30.081  0.00  0.00    28     0.40     32     0.0  0.00   0.0   0.040   0.000   66.5    70   56.4   66.8  13.29  .0747    0.000   202    7    100.0   10 
 7/28/21  8:30p   59.3   59.4   59.3    89   56.1   9.0   ENE   1.50  15.0     E   56.9   59.5   57.1   55.4  30.081  0.00  0.00    20     0.29     23     0.0  0.00   0.0   0.040   0.000   67.0    69   56.5   67.3  12.97  .0746    0.000   203    7    100.0   10 
 7/28/21  8:40p   59.1   59.3   59.1    89   55.9   8.0   ENE   1.33  15.0     E   57.4   59.3   57.6   55.6  30.078  0.00  0.00    11     0.16     14     0.0  0.00   0.0   0.041   0.000   67.4    68   56.5   67.7  12.65  .0745    0.000   201    7    100.0   10 
 7/28/21  8:50p   58.7   59.1   58.7    89   55.5   7.0   ENE   1.17  14.0   ENE   57.6   58.8   57.7   55.4  30.080  0.00  0.00     4     0.06      7     0.0  0.00   0.0   0.044   0.000   67.6    68   56.7   68.0  12.65  .0745    0.000   204    7    100.0   10 
 7/28/21  9:00p   57.9   58.7   57.9    89   54.7   6.0   ENE   1.00  11.0   ENE   57.1   58.0   57.2   54.8  30.077  0.00  0.00     0     0.00      0     0.0  0.00   0.0   0.049   0.000   67.8    67   56.4   68.1  12.39  .0745    0.001   201    7    100.0   10 
 7/28/21  9:10p   57.3   57.9   57.3    89   54.1   7.0    NE   1.17  11.0   NNE   56.0   57.4   56.1   53.7  30.077  0.00  0.00     0     0.00      0     0.0  0.00   0.0   0.053   0.000   67.9    67   56.5   68.2  12.39  .0745    0.000   199    7    100.0   10 
 7/28/21  9:20p   56.9   57.3   56.9    90   54.0   9.0    NE   1.50  13.0    NE   54.0   57.0   54.1   51.8  30.080  0.00  0.00     0     0.00      0     0.0  0.00   0.0   0.056   0.000   68.0    67   56.6   68.4  12.39  .0744    0.000   202    7    100.0   10 
 7/28/21  9:30p   56.6   56.9   56.6    91   54.0   8.0   ENE   1.33  14.0   ENE   54.4   56.7   54.5   52.2  30.083  0.00  0.00     0     0.00      0     0.0  0.00   0.0   0.058   0.000   68.1    66   56.3   68.4  12.15  .0745    0.000   203    7    100.0   10 
 7/28/21  9:40p   56.2   56.6   56.2    91   53.6   8.0   ENE   1.33  13.0   NNE   53.9   56.3   54.0   51.6  30.088  0.00  0.00     0     0.00      0     0.0  0.00   0.0   0.061   0.000   68.2    66   56.4   68.4  12.15  .0744    0.000   201    7    100.0   10 
 7/28/21  9:50p   55.8   56.2   55.8    91   53.2   6.0   ENE   1.00  11.0   ENE   54.6   55.9   54.7   52.2  30.087  0.00  0.00     0     0.00      0     0.0  0.00   0.0   0.064   0.000   68.3    66   56.5   68.5  12.15  .0744    0.000   202    7    100.0   10 
 7/28/21 10:00p   55.4   55.8   55.4    91   52.8   5.0   ENE   0.83   8.0     E   54.6   55.5   54.7   52.2  30.089  0.00  0.00     0     0.00      0     0.0  0.00   0.0   0.067   0.000   68.3    66   56.5   68.5  12.15  .0744    0.001   204    7    100.0   10 
 7/28/21 10:10p   55.4   55.5   55.2    92   53.1   5.0   ENE   0.83  10.0   ENE   54.6   55.5   54.7   52.2  30.088  0.00  0.00     0     0.00      0     0.0  0.00   0.0   0.067   0.000   68.4    65   56.2   68.5  11.88  .0744    0.000   201    7    100.0   10 
 7/28/21 10:20p   55.0   55.5   55.0    92   52.7   4.0   ENE   0.67   7.0     E   54.6   55.1   54.7   52.2  30.092  0.00  0.00     0     0.00      0     0.0  0.00   0.0   0.069   0.000   68.4    65   56.2   68.5  11.88  .0744    0.000   203    7    100.0   10 
 7/28/21 10:30p   55.3   55.3   55.0    92   53.0   4.0   ENE   0.67  11.0    NE   55.0   55.4   55.1   52.6  30.093  0.00  0.00     0     0.00      0     0.0  0.00   0.0   0.067   0.000   68.5    65   56.3   68.6  11.88  .0744    0.000   203    7    100.0   10 
 7/28/21 10:40p   55.6   55.6   55.2    93   53.6   5.0   ENE   0.83  11.0   ENE   54.8   55.8   55.0   52.5  30.096  0.00  0.00     0     0.00      0     0.0  0.00   0.0   0.065   0.000   68.5    65   56.3   68.6  11.88  .0744    0.000   203    7    100.0   10 
 7/28/21 10:50p   56.0   56.0   55.6    93   54.0   5.0   ENE   0.83  10.0     N   55.3   56.2   55.5   53.1  30.097  0.00  0.00     0     0.00      0     0.0  0.00   0.0   0.063   0.000   68.5    64   55.8   68.4  11.68  .0745    0.000   204    7    100.0   10 
 7/28/21 11:00p   56.1   56.2   56.0    93   54.1   4.0   ENE   0.67   9.0   ENE   55.9   56.3   56.1   53.7  30.095  0.00  0.00     0     0.00      0     0.0  0.00   0.0   0.062   0.000   68.6    64   55.9   68.5  11.68  .0744    0.000   203    7    100.0   10 
 7/28/21 11:10p   56.3   56.3   56.1    93   54.3   5.0   ENE   0.83  10.0   ENE   55.6   56.5   55.8   53.4  30.092  0.00  0.00     0     0.00      0     0.0  0.00   0.0   0.060   0.000   68.6    64   55.9   68.5  11.68  .0744    0.000   204    7    100.0   10 
 7/28/21 11:20p   56.6   56.6   56.3    93   54.6   6.0   ENE   1.00  12.0   ENE   55.5   56.8   55.7   53.3  30.093  0.00  0.00     0     0.00      0     0.0  0.00   0.0   0.058   0.000   68.7    64   56.0   68.6  11.68  .0744    0.000   201    7    100.0   10 
 7/28/21 11:30p   56.6   56.6   56.5    93   54.6   5.0   ENE   0.83  10.0   ENE   56.0   56.8   56.2   53.8  30.094  0.00  0.00     0     0.00      0     0.0  0.00   0.0   0.058   0.000   68.7    64   56.0   68.6  11.68  .0744    0.000   203    7    100.0   10 
 7/28/21 11:40p   56.7   56.7   56.6    94   55.0   6.0   ENE   1.00  11.0   ENE   55.6   56.9   55.8   53.4  30.093  0.00  0.00     0     0.00      0     0.0  0.00   0.0   0.058   0.000   68.7    64   56.0   68.6  11.68  .0744    0.000   202    7    100.0   10 
 7/28/21 11:50p   56.7   56.7   56.6    94   55.0   5.0   ENE   0.83  11.0     E   56.1   56.9   56.3   53.9  30.094  0.00  0.00     0     0.00      0     0.0  0.00   0.0   0.058   0.000   68.8    64   56.1   68.7  11.67  .0744    0.000   203    7    100.0   10 
 7/29/21 12:00a   56.7   56.7   56.6    94   55.0   5.0   ENE   0.83  12.0   ENE   56.1   56.9   56.3   53.9  30.095  0.00  0.00     0     0.00      0     0.0  0.00   0.0   0.058   0.000   68.7    64   56.0   68.6  11.68  .0744    0.000   204    7    100.0   10 
 7/29/21 12:10a   56.8   56.9   56.7    94   55.1   6.0   ENE   1.00  13.0     E   55.8   57.0   56.0   53.6  30.094  0.00  0.00     0     0.00      0     0.0  0.00   0.0   0.057   0.000   68.7    64   56.0   68.6  11.68  .0744    0.000   202    7    100.0   10 
 7/29/21 12:20a   56.8   56.9   56.8    94   55.1   7.0   ENE   1.17  14.0     E   55.4   57.0   55.6   53.2  30.093  0.00  0.00     0     0.00      0     0.0  0.00   0.0   0.057   0.000   68.8    64   56.1   68.7  11.67  .0744    0.000   203    7    100.0   10 
 7/29/21 12:30a   56.5   56.8   56.5    94   54.8   4.0   ENE   0.67  14.0     E   56.4   56.7   56.6   54.2  30.088  0.00  0.00     0     0.00      0     0.0  0.00   0.0   0.059   0.000   68.8    63   55.7   68.6  11.57  .0744    0.000   203    7    100.0   10 
 7/29/21 12:40a   55.8   56.5   55.8    93   53.8   4.0    NE   0.67   8.0     N   55.6   56.0   55.8   53.3  30.086  0.00  0.00     0     0.00      0     0.0  0.00   0.0   0.064   0.000   68.8    63   55.7   68.6  11.57  .0744    0.000   202    7    100.0   10 
 7/29/21 12:50a   55.3   55.8   55.3    94   53.6   3.0   ENE   0.50   6.0     E   55.3   55.5   55.5   53.0  30.085  0.00  0.00     0     0.00      0     0.0  0.00   0.0   0.067   0.000   68.8    63   55.7   68.6  11.57  .0744    0.000   204    7    100.0   10 
 7/29/21  1:00a   55.2   55.3   55.1    94   53.5   3.0   ENE   0.50   5.0    NE   55.2   55.4   55.4   52.9  30.086  0.00  0.00     0     0.00      0     0.0  0.00   0.0   0.068   0.000   68.8    63   55.7   68.6  11.57  .0744    0.000   202    7    100.0   10 
 7/29/21  1:10a   55.1   55.2   55.1    94   53.4   4.0   ENE   0.67   7.0   NNE   54.7   55.3   54.9   52.4  30.083  0.00  0.00     0     0.00      0     0.0  0.00   0.0   0.069   0.000   68.8    63   55.7   68.6  11.57  .0744    0.000   203    7    100.0   10 
 7/29/21  1:20a   54.5   55.1   54.4    94   52.8   5.0    NE   0.83   9.0   NNE   53.5   54.7   53.7   51.2  30.083  0.00  0.00     0     0.00      0     0.0  0.00   0.0   0.073   0.000   68.8    63   55.7   68.6  11.57  .0744    0.000   203    7    100.0   10 
 7/29/21  1:30a   54.2   54.5   54.2    94   52.5   4.0   ENE   0.67   9.0    NE   53.7   54.4   53.9   51.4  30.081  0.00  0.00     0     0.00      0     0.0  0.00   0.0   0.075   0.000   68.8    63   55.7   68.6  11.57  .0744    0.000   202    7    100.0   10 
 7/29/21  1:40a   53.8   54.2   53.8    94   52.1   3.0   ENE   0.50   6.0    NE   53.8   54.0   54.0   51.5  30.079  0.00  0.00     0     0.00      0     0.0  0.00   0.0   0.078   0.000   68.8    63   55.7   68.6  11.57  .0744    0.000   202    7    100.0   10 
 7/29/21  1:50a   53.3   53.8   53.3    94   51.6   3.0   ENE   0.50   7.0    NE   53.3   53.5   53.5   50.9  30.080  0.00  0.00     0     0.00      0     0.0  0.00   0.0   0.081   0.000   68.8    63   55.7   68.6  11.57  .0744    0.000   204    7    100.0   10 
 7/29/21  2:00a   52.9   53.3   52.9    94   51.2   4.0    NE   0.67   8.0   NNE   52.2   53.2   52.5   49.9  30.077  0.00  0.00     0     0.00      0     0.0  0.00   0.0   0.084   0.000   68.8    62   55.2   68.5  11.37  .0744    0.000   202    7    100.0   10 
 7/29/21  2:10a   52.6   52.9   52.6    95   51.2   4.0   ENE   0.67   8.0   NNE   51.9   52.9   52.2   49.6  30.075  0.00  0.00     0     0.00      0     0.0  0.00   0.0   0.086   0.000   68.8    62   55.2   68.5  11.37  .0744    0.000   204    7    100.0   10 
 7/29/21  2:20a   52.4   52.6   52.4    95   51.0   3.0   ENE   0.50   8.0     E   52.3   52.7   52.6   50.0  30.075  0.00  0.00     0     0.00      0     0.0  0.00   0.0   0.087   0.000   68.8    62   55.2   68.5  11.37  .0744    0.000   202    7    100.0   10 
 7/29/21  2:30a   52.0   52.4   52.0    95   50.6   4.0   ENE   0.67   6.0    NE   51.2   52.3   51.5   48.9  30.076  0.00  0.00     0     0.00      0     0.0  0.00   0.0   0.090   0.000   68.8    62   55.2   68.5  11.37  .0744    0.000   202    7    100.0   10 
 7/29/21  2:40a   52.5   52.5   52.0    95   51.1   4.0    NE   0.67   7.0    NE   51.8   52.8   52.1   49.5  30.074  0.00  0.00     0     0.00      0     0.0  0.00   0.0   0.087   0.000   68.8    62   55.2   68.5  11.37  .0744    0.000   203    7    100.0   10 
 7/29/21  2:50a   52.7   52.8   52.4    96   51.6   4.0    NE   0.67   7.0     E   52.0   53.0   52.3   49.7  30.073  0.00  0.00     0     0.00      0     0.0  0.00   0.0   0.085   0.000   68.8    62   55.2   68.5  11.37  .0744    0.000   203    7    100.0   10 
 7/29/21  3:00a   52.7   52.8   52.7    95   51.3   5.0    NE   0.83   9.0   NNE   51.4   53.0   51.7   49.1  30.071  0.00  0.00     0     0.00      0     0.0  0.00   0.0   0.085   0.000   68.8    62   55.2   68.5  11.37  .0744    0.000   202    7    100.0   10 
 7/29/21  3:10a   52.4   52.8   52.3    95   51.0   3.0   ENE   0.50   6.0   NNE   52.3   52.7   52.6   50.0  30.066  0.00  0.00     0     0.00      0     0.0  0.00   0.0   0.087   0.000   68.8    62   55.2   68.5  11.37  .0744    0.000   202    7    100.0   10 
 7/29/21  3:20a   51.9   52.4   51.9    95   50.5   4.0   ENE   0.67   7.0    NE   51.1   52.2   51.4   48.8  30.065  0.00  0.00     0     0.00      0     0.0  0.00   0.0   0.091   0.000   68.7    62   55.2   68.4  11.38  .0744    0.000   203    7    100.0   10 
 7/29/21  3:30a   51.3   51.9   51.3    95   49.9   4.0    NE   0.67   7.0    NE   50.4   51.7   50.8   48.2  30.066  0.00  0.00     0     0.00      0     0.0  0.00   0.0   0.095   0.000   68.7    62   55.2   68.4  11.38  .0744    0.000   203    7    100.0   10 
 7/29/21  3:40a   50.9   51.3   50.8    96   49.8   4.0     E   0.67   6.0     E   49.9   51.4   50.4   47.8  30.067  0.00  0.00     0     0.00      0     0.0  0.00   0.0   0.098   0.000   68.7    62   55.2   68.4  11.38  .0744    0.000   205    7    100.0   10 
 7/29/21  3:50a   50.8   50.9   50.8    96   49.7   3.0   ENE   0.50   6.0     E   50.6   51.3   51.1   48.5  30.066  0.00  0.00     0     0.00      0     0.0  0.00   0.0   0.099   0.000   68.7    62   55.2   68.4  11.38  .0744    0.000   202    7    100.0   10 
 7/29/21  4:00a   50.7   50.8   50.7    96   49.6   2.0   ENE   0.33   5.0   ENE   50.7   51.2   51.2   48.6  30.064  0.00  0.00     0     0.00      0     0.0  0.00   0.0   0.099   0.000   68.6    62   55.1   68.3  11.38  .0744    0.000   204    7    100.0   10 
 7/29/21  4:10a   50.6   50.8   50.6    95   49.2   1.0   ENE   0.17   5.0   NNE   50.6   51.0   51.0   48.4  30.066  0.00  0.00     0     0.00      0     0.0  0.00   0.0   0.100   0.000   68.6    61   54.6   68.2  11.25  .0744    0.000   202    7    100.0   10 
 7/29/21  4:20a   50.2   50.6   50.2    96   49.1   2.0     E   0.33   4.0    NE   50.2   50.7   50.7   48.1  30.063  0.00  0.00     0     0.00      0     0.0  0.00   0.0   0.103   0.000   68.6    61   54.6   68.2  11.25  .0744    0.000   203    7    100.0   10 
 7/29/21  4:30a   50.1   50.3   50.0    96   49.0   2.0   ENE   0.33   4.0   ENE   50.1   50.6   50.6   48.0  30.062  0.00  0.00     0     0.00      0     0.0  0.00   0.0   0.103   0.000   68.6    61   54.6   68.2  11.25  .0744    0.000   204    7    100.0   10 
 7/29/21  4:40a   50.3   50.3   50.0    96   49.2   4.0   ENE   0.67   6.0     N   49.2   50.8   49.7   47.1  30.060  0.00  0.00     0     0.00      0     0.0  0.00   0.0   0.102   0.000   68.6    61   54.6   68.2  11.25  .0744    0.000   203    7    100.0   10 
 7/29/21  4:50a   50.8   50.8   50.3    96   49.7   3.0   ENE   0.50   5.0     E   50.6   51.3   51.1   48.5  30.064  0.00  0.00     0     0.00      0     0.0  0.00   0.0   0.099   0.000   68.6    61   54.6   68.2  11.25  .0744    0.000   203    7    100.0   10 
 7/29/21  5:00a   50.7   51.0   50.7    96   49.6   2.0   ENE   0.33   5.0     E   50.7   51.2   51.2   48.6  30.066  0.00  0.00     0     0.00      0     0.0  0.00   0.0   0.099   0.000   68.6    61   54.6   68.2  11.25  .0744    0.000   204    7    100.0   10 
 7/29/21  5:10a   51.0   51.0   50.7    96   49.9   3.0    NE   0.50   5.0    NE   50.8   51.4   51.2   48.6  30.065  0.00  0.00     0     0.00      0     0.0  0.00   0.0   0.097   0.000   68.5    61   54.5   68.1  11.25  .0744    0.000   202    7    100.0   10 
 7/29/21  5:20a   49.9   51.0   49.9    96   48.8   5.0    NE   0.83   9.0    NE   48.1   50.4   48.6   45.9  30.063  0.00  0.00     0     0.00      0     0.0  0.00   0.0   0.105   0.000   68.5    61   54.5   68.1  11.25  .0744    0.000   203    7    100.0   10 
 7/29/21  5:30a   49.8   49.9   49.7    96   48.7   4.0   ENE   0.67   8.0   ENE   48.7   50.3   49.2   46.5  30.062  0.00  0.00     0     0.00      0     0.0  0.00   0.0   0.106   0.000   68.5    61   54.5   68.1  11.25  .0744    0.000   203    7    100.0   10 
 7/29/21  5:40a   50.1   50.1   49.8    97   49.3   3.0    NE   0.50   6.0   ENE   49.8   50.7   50.4   47.8  30.061  0.00  0.00     0     0.00      0     0.0  0.00   0.0   0.103   0.000   68.5    61   54.5   68.1  11.25  .0744    0.000   204    7    100.0   10 
 7/29/21  5:50a   50.5   50.5   50.1    96   49.4   2.0   ENE   0.33   7.0   ENE   50.5   51.0   51.0   48.4  30.061  0.00  0.00     0     0.00      0     0.0  0.00   0.0   0.101   0.000   68.4    61   54.4   68.1  11.25  .0744    0.000   200    7    100.0   10 
 7/29/21  6:00a   50.3   50.5   50.3    96   49.2   2.0   ENE   0.33   5.0     E   50.3   50.8   50.8   48.2  30.059  0.00  0.00     0     0.00      0     0.0  0.00   0.0   0.102   0.000   68.4    61   54.4   68.1  11.25  .0744    0.000   204    7    100.0   10 
 7/29/21  6:10a   50.5   50.6   50.3    97   49.7   3.0   ENE   0.50   5.0   ENE   50.3   51.0   50.8   48.3  30.063  0.00  0.00     5     0.07      7     0.0  0.00   0.0   0.101   0.000   68.4    61   54.4   68.1  11.25  .0744    0.000   202    7    100.0   10 
 7/29/21  6:20a   51.0   51.0   50.5    97   50.2   3.0   ENE   0.50   7.0    NE   50.8   51.5   51.3   48.9  30.065  0.00  0.00     9     0.13     11     0.0  0.00   0.0   0.097   0.000   68.4    61   54.4   68.1  11.25  .0744    0.000   201    7    100.0   10 
 7/29/21  6:30a   49.8   51.0   49.8    96   48.7   5.0    NE   0.83   9.0     N   48.0   50.3   48.5   46.1  30.067  0.00  0.00    12     0.17     14     0.0  0.00   0.0   0.106   0.000   68.4    61   54.4   68.1  11.25  .0744    0.000   203    7    100.0   10 
 7/29/21  6:40a   49.2   49.8   49.2    96   48.1   5.0    NE   0.83   9.0   ENE   47.2   49.7   47.7   45.4  30.070  0.00  0.00    16     0.23     18     0.0  0.00   0.0   0.110   0.000   68.4    61   54.4   68.1  11.25  .0745    0.000   203    7    100.0   10 
 7/29/21  6:50a   49.2   49.3   49.0    97   48.4   5.0   ENE   0.83   9.0   NNE   47.2   49.7   47.7   46.6  30.071  0.00  0.00    20     0.29     21     0.0  0.00   0.0   0.110   0.000   68.4    61   54.4   68.1  11.25  .0745    0.000   205    7    100.0   10 
 7/29/21  7:00a   49.3   49.3   49.2    97   48.5   5.0   ENE   0.83   9.0   ENE   47.4   49.9   48.0   47.0  30.070  0.00  0.00    22     0.32     23     0.0  0.00   0.0   0.109   0.000   68.4    61   54.4   68.1  11.25  .0745    0.000   203    7    100.0   10 
 7/29/21  7:10a   49.2   49.3   49.2    97   48.4   5.0     E   0.83   8.0     N   47.2   49.7   47.7   46.8  30.072  0.00  0.00    26     0.37     28     0.0  0.00   0.0   0.110   0.000   68.4    61   54.4   68.1  11.25  .0745    0.000   201    7    100.0   10 
 7/29/21  7:20a   49.2   49.2   49.1    97   48.4   4.0   ENE   0.67   8.0   ENE   47.9   49.7   48.4   47.5  30.072  0.00  0.00    28     0.40     30     0.0  0.00   0.0   0.110   0.000   68.5    61   54.5   68.1  11.25  .0744    0.000   204    7    100.0   10 
 7/29/21  7:30a   49.3   49.4   49.2    97   48.5   6.0    NE   1.00  11.0   NNE   46.9   49.9   47.5   46.8  30.075  0.00  0.00    32     0.46     35     0.0  0.00   0.0   0.109   0.000   68.5    61   54.5   68.1  11.25  .0745    0.000   202    7    100.0   10 
 7/29/21  7:40a   49.6   49.6   49.3    97   48.8   5.0   ENE   0.83   9.0   NNE   47.7   50.2   48.3   47.6  30.074  0.00  0.00    33     0.47     35     0.0  0.00   0.0   0.107   0.000   68.5    61   54.5   68.1  11.25  .0744    0.000   202    7    100.0   10 
 7/29/21  7:50a   49.6   50.0   49.6    96   48.5   6.0    NE   1.00  11.0   NNE   47.2   50.1   47.7   47.0  30.075  0.00  0.00    36     0.52     39     0.0  0.00   0.0   0.107   0.000   68.5    60   54.1   68.1  11.05  .0745    0.000   199    7    100.0   10 
 7/29/21  8:00a   49.3   49.6   49.2    97   48.5   6.0   ENE   1.00  11.0    NE   46.9   49.9   47.5   48.0  30.077  0.00  0.00    66     0.95     77     0.0  0.00   0.0   0.109   0.000   68.6    60   54.2   68.1  11.05  .0745    0.001   202    7    100.0   10 
 7/29/21  8:10a   50.3   50.3   49.3    98   49.8   7.0   ENE   1.17  11.0   NNE   47.6   50.9   48.2   52.6  30.074  0.00  0.00   184     2.64    262     0.3  0.02   0.5   0.102   0.000   68.6    60   54.2   68.1  11.05  .0744    0.000   204    7    100.0   10 
 7/29/21  8:20a   50.8   51.1   50.3    97   50.0   7.0    NE   1.17  11.0    NE   48.2   51.3   48.7   55.7  30.074  0.00  0.00   281     4.03    295     0.6  0.04   0.7   0.099   0.000   68.6    60   54.2   68.1  11.05  .0744    0.000   202    7    100.0   10 
 7/29/21  8:30a   51.2   51.2   50.7    97   50.4   8.0    NE   1.33  12.0   NNE   47.9   51.7   48.4   55.7  30.072  0.00  0.00   315     4.52    329     0.7  0.05   0.8   0.096   0.000   67.8    58   52.5   67.3  10.75  .0746    0.000   202    7    100.0   10 
 7/29/21  8:40a   51.6   51.6   51.2    97   50.8   8.0    NE   1.33  13.0    NE   48.4   52.0   48.8   56.6  30.071  0.00  0.00   349     5.00    362     0.9  0.06   0.9   0.093   0.000   66.1    59   51.4   65.3  10.95  .0749    0.000   203    7    100.0   10 
 7/29/21  8:50a   51.8   51.8   51.4    97   51.0   8.0    NE   1.33  12.0    NE   48.7   52.2   49.1   57.1  30.069  0.00  0.00   369     5.29    385     1.0  0.07   1.1   0.092   0.000   64.7    62   51.4   64.1  11.45  .0751    0.000   205    7    100.0   10 
 7/29/21  9:00a   51.9   51.9   51.8    97   51.1   9.0    NE   1.50  14.0     N   48.1   52.3   48.5   48.0  30.069  0.00  0.00    49     0.70     49     0.2  0.01   1.1   0.091   0.000   63.5    63   50.7   62.8  11.65  .0753    0.005   199    7    100.0   10 
 7/29/21  9:10a   51.9   51.9   51.8    97   51.1  11.0    NE   1.83  17.0    NE   47.0   52.3   47.4   47.3  30.069  0.00  0.00    63     0.90     91     0.5  0.04   1.0   0.091   0.000   62.3    65   50.4   61.6  12.00  .0755    0.000   204    7    100.0   10 
 7/29/21  9:20a   52.4   52.4   51.8    97   51.6  10.0    NE   1.67  16.0   NNE   48.1   52.8   48.5   48.6  30.068  0.00  0.00    70     1.00     95     1.0  0.07   1.1   0.087   0.000   61.4    68   50.7   60.8  12.75  .0756    0.000   202    7    100.0   10 
 7/29/21  9:30a   52.4   52.5   52.3    97   51.6  10.0    NE   1.67  17.0    NE   48.1   52.8   48.5   49.2  30.068  0.00  0.00    98     1.40    123     1.2  0.09   1.2   0.087   0.000   60.7    69   50.5   60.1  12.96  .0757    0.000   204    7    100.0   10 
 7/29/21  9:40a   52.5   52.5   52.3    96   51.4   9.0    NE   1.50  15.0    NE   48.8   52.8   49.1   49.2  30.060  0.00  0.00    76     1.09    120     1.2  0.09   1.3   0.087   0.000   60.2    70   50.4   59.6  13.25  .0758    0.000   204    7    100.0   10 
 7/29/21  9:50a   52.2   52.5   52.1    96   51.1   9.0    NE   1.50  15.0     N   48.4   52.5   48.7   49.0  30.059  0.00  0.00    83     1.19    123     1.2  0.09   1.4   0.089   0.000   60.0    69   49.8   59.3  12.95  .0758    0.000   204    7    100.0   10 
 7/29/21 10:00a   52.2   52.2   51.9    96   51.1  11.0    NE   1.83  16.0   ENE   47.3   52.5   47.6   47.5  30.061  0.00  0.00    73     1.05    109     1.4  0.10   1.4   0.089   0.000   59.8    70   50.0   59.2  13.26  .0758    0.002   202    7    100.0   10 
 7/29/21 10:10a   52.8   52.8   52.2    96   51.7  11.0   ENE   1.83  17.0    NE   48.0   53.1   48.3   48.6  30.061  0.00  0.00    88     1.26    151     1.5  0.11   1.6   0.085   0.000   59.5    71   50.1   58.9  13.48  .0759    0.000   202    7    100.0   10 
 7/29/21 10:20a   52.6   52.8   52.6    96   51.5  12.0    NE   2.00  20.0    NE   47.3   52.9   47.6   55.2  30.060  0.00  0.00   506     7.25    624     2.0  0.14   2.7   0.086   0.000   59.2    72   50.2   58.6  13.80  .0759    0.000   202    7    100.0   10 
 7/29/21 10:30a   53.2   53.2   52.6    96   52.1  11.0    NE   1.83  17.0     N   48.4   53.5   48.7   56.9  30.059  0.00  0.00   539     7.73    654     2.6  0.19   2.9   0.082   0.000   59.1    72   50.1   58.5  13.80  .0759    0.000   203    7    100.0   10 
 7/29/21 10:40a   53.2   53.2   53.1    95   51.8  11.0    NE   1.83  18.0    NE   48.4   53.5   48.7   57.5  30.060  0.00  0.00   632     9.06    722     3.1  0.22   3.3   0.082   0.000   58.9    73   50.3   58.3  14.04  .0759    0.000   205    7    100.0   10 
 7/29/21 10:50a   53.5   53.5   53.2    95   52.1  12.0    NE   2.00  20.0   NNE   48.3   53.8   48.6   57.5  30.063  0.00  0.00   699    10.02    717     3.5  0.25   3.7   0.080   0.000   59.0    72   50.0   58.4  13.81  .0760    0.000   202    7    100.0   10 
 7/29/21 11:00a   54.0   54.0   53.5    95   52.6  11.0    NE   1.83  18.0     N   49.4   54.2   49.6   58.7  30.063  0.00  0.00   687     9.85    722     3.7  0.26   3.9   0.076   0.000   59.1    73   50.5   58.5  14.02  .0759    0.010   204    7    100.0   10 
 7/29/21 11:10a   54.0   54.1   53.9    95   52.6  11.0    NE   1.83  18.0   NNE   49.4   54.2   49.6   58.9  30.062  0.00  0.00   742    10.64    759     3.9  0.28   4.1   0.076   0.000   59.1    73   50.5   58.5  14.02  .0759    0.000   204    7    100.0   10 
 7/29/21 11:20a   54.4   54.4   54.0    95   53.0  11.0   ENE   1.83  18.0    NE   49.9   54.6   50.1   59.4  30.060  0.00  0.00   717    10.28    772     4.1  0.29   4.4   0.074   0.000   59.3    73   50.6   58.7  14.01  .0759    0.000   205    7    100.0   10 
 7/29/21 11:30a   54.2   54.6   54.2    94   52.5  12.0   ENE   2.00  20.0   NNE   49.1   54.4   49.3   58.3  30.058  0.00  0.00   775    11.11    826     4.5  0.32   4.6   0.075   0.000   59.2    73   50.5   58.6  14.01  .0759    0.000   202    7    100.0   10 
 7/29/21 11:40a   54.0   54.3   53.9    94   52.3  12.0    NE   2.00  18.0    NE   48.9   54.2   49.1   58.1  30.060  0.00  0.00   760    10.89    796     4.6  0.33   4.7   0.076   0.000   59.0    73   50.4   58.4  14.03  .0759    0.000   204    7    100.0   10 
 7/29/21 11:50a   54.1   54.2   53.9    94   52.4  12.0    NE   2.00  19.0   ENE   49.0   54.3   49.2   58.3  30.059  0.00  0.00   771    11.05    810     4.9  0.35   5.0   0.076   0.000   59.1    73   50.5   58.5  14.02  .0759    0.000   202    7    100.0   10 
 7/29/21 12:00p   54.6   54.7   54.1    94   52.9  12.0    NE   2.00  19.0   NNE   49.6   54.8   49.8   58.8  30.058  0.00  0.00   836    11.98    847     5.1  0.36   5.2   0.072   0.000   59.3    74   51.0   58.8  14.29  .0759    0.015   204    7    100.0   10 
 7/29/21 12:10p   55.1   55.1   54.6    94   53.4  12.0    NE   2.00  19.0     N   50.1   55.3   50.3   59.4  30.058  0.00  0.00   828    11.87    882     5.1  0.36   5.2   0.069   0.000   59.2    74   50.9   58.7  14.30  .0759    0.000   204    7    100.0   10 
 7/29/21 12:20p   55.5   55.5   55.1    94   53.8  13.0   ENE   2.17  21.0    NE   50.2   55.7   50.4   59.1  30.055  0.00  0.00   862    12.36    895     5.4  0.39   5.6   0.066   0.000   59.2    75   51.3   58.7  14.68  .0759    0.000   204    7    100.0   10 
 7/29/21 12:30p   56.0   56.0   55.5    94   54.3  12.0    NE   2.00  19.0    NE   51.2   56.2   51.4   60.6  30.056  0.00  0.00   847    12.14    918     5.4  0.39   5.8   0.063   0.000   59.3    75   51.4   58.8  14.68  .0758    0.000   204    7    100.0   10 
 7/29/21 12:40p   56.0   56.0   55.9    94   54.3  13.0    NE   2.17  23.0    NE   50.7   56.2   50.9   59.6  30.052  0.00  0.00   877    12.57    916     5.7  0.41   5.8   0.063   0.000   59.5    75   51.6   59.0  14.67  .0758    0.000   205    7    100.0   10 
 7/29/21 12:50p   56.1   56.2   55.9    93   54.1  13.0    NE   2.17  21.0     N   50.8   56.3   51.0   59.8  30.048  0.00  0.00   865    12.40    912     5.6  0.40   5.7   0.062   0.000   59.5    75   51.6   59.0  14.67  .0758    0.000   203    7    100.0   10 
 7/29/21  1:00p   56.6   56.7   56.1    93   54.6  13.0   ENE   2.17  20.0   ENE   51.4   56.8   51.6   60.5  30.048  0.00  0.00   857    12.29    904     5.8  0.41   6.0   0.058   0.000   59.7    76   52.1   59.3  14.96  .0757    0.017   201    7    100.0   10 
 7/29/21  1:10p   56.7   56.8   56.6    93   54.7  14.0   ENE   2.33  21.0   NNE   51.1   56.9   51.3   59.9  30.045  0.00  0.00   860    12.33    942     5.7  0.41   5.9   0.058   0.000   59.7    76   52.1   59.3  14.96  .0757    0.000   205    7    100.0   10 
 7/29/21  1:20p   56.7   56.8   56.6    93   54.7  14.0    NE   2.33  22.0   NNE   51.1   56.9   51.3   60.0  30.048  0.00  0.00   848    12.16    933     5.6  0.40   5.7   0.058   0.000   59.8    76   52.2   59.4  14.96  .0757    0.000   203    7    100.0   10 
 7/29/21  1:30p   56.9   56.9   56.6    93   54.9  14.0   ENE   2.33  19.0    NE   51.4   57.1   51.6   60.3  30.045  0.00  0.00   786    11.27    853     5.2  0.37   5.6   0.056   0.000   59.8    77   52.6   59.5  15.35  .0757    0.000   202    7    100.0   10 
 7/29/21  1:40p   57.5   57.6   56.9    93   55.5  14.0   ENE   2.33  24.0   ENE   52.1   57.7   52.3   61.1  30.039  0.00  0.00   832    11.93    868     5.4  0.39   6.0   0.052   0.000   60.0    77   52.8   59.7  15.35  .0756    0.000   204    7    100.0   10 
 7/29/21  1:50p   58.0   58.0   57.5    93   56.0  15.0   ENE   2.50  24.0     N   52.3   58.2   52.5   61.0  30.040  0.00  0.00   790    11.32    881     5.4  0.39   5.8   0.049   0.000   60.2    78   53.3   60.0  15.65  .0756    0.000   203    7    100.0   10 
 7/29/21  2:00p   58.1   58.1   58.0    92   55.8  14.0    NE   2.33  24.0    NE   52.7   58.3   52.9   61.6  30.037  0.00  0.00   824    11.81    900     5.3  0.38   5.8   0.048   0.000   60.5    77   53.3   60.3  15.35  .0755    0.017   202    7    100.0   10 
 7/29/21  2:10p   58.0   58.2   58.0    92   55.7  13.0   ENE   2.17  22.0   NNW   53.0   58.2   53.2   61.9  30.035  0.00  0.00   697     9.99    770     4.6  0.33   5.0   0.049   0.000   60.6    77   53.3   60.4  15.35  .0755    0.000   203    7    100.0   10 
 7/29/21  2:20p   57.8   58.1   57.8    92   55.5  14.0   ENE   2.33  21.0   ENE   52.4   58.0   52.6   61.0  30.033  0.00  0.00   697     9.99    738     4.5  0.32   4.8   0.050   0.000   60.7    76   53.1   60.4  14.94  .0755    0.000   202    7    100.0   10 
 7/29/21  2:30p   58.5   58.6   57.9    93   56.5  13.0   ENE   2.17  22.0    SE   53.6   58.8   53.9   62.5  30.032  0.00  0.00   681     9.76    761     4.5  0.32   4.7   0.045   0.000   60.9    77   53.6   60.7  15.35  .0755    0.000   204    7    100.0   10 
 7/29/21  2:40p   58.5   58.6   58.4    92   56.2  14.0   ENE   2.33  23.0     E   53.2   58.7   53.4   61.6  30.034  0.00  0.00   667     9.56    738     4.3  0.31   4.6   0.045   0.000   61.0    77   53.7   60.8  15.35  .0754    0.000   204    7    100.0   10 
 7/29/21  2:50p   58.1   58.4   58.0    92   55.8  13.0   ENE   2.17  22.0   NNE   53.1   58.3   53.3   61.9  30.038  0.00  0.00   677     9.70    752     4.1  0.29   4.3   0.048   0.000   61.0    76   53.4   60.8  14.93  .0755    0.000   204    7    100.0   10 
 7/29/21  3:00p   58.1   58.2   58.0    92   55.8  13.0   ENE   2.17  21.0   NNE   53.1   58.3   53.3   62.0  30.033  0.00  0.00   711    10.19    766     4.5  0.32   4.9   0.048   0.000   61.0    76   53.4   60.8  14.93  .0755    0.015   203    7    100.0   10 
 7/29/21  3:10p   58.8   58.8   58.1    92   56.5  13.0    NE   2.17  20.0   ENE   53.9   59.1   54.2   62.8  30.031  0.00  0.00   812    11.64    861     4.6  0.33   5.1   0.043   0.000   61.1    77   53.8   60.9  15.35  .0754    0.000   203    7    100.0   10 
 7/29/21  3:20p   58.6   58.8   58.5    92   56.3  14.0   ENE   2.33  21.0   ENE   53.3   58.8   53.5   62.0  30.027  0.00  0.00   728    10.44    766     4.3  0.31   4.7   0.044   0.000   61.1    77   53.8   60.9  15.35  .0754    0.000   202    7    100.0   10 
 7/29/21  3:30p   59.3   59.4   58.6    92   57.0  14.0     N   2.33  25.0   ENE   54.1   59.6   54.4   62.9  30.026  0.00  0.00   728    10.44    772     4.2  0.30   4.5   0.040   0.000   61.3    78   54.4   61.2  15.68  .0754    0.000   203    7    100.0   10 
 7/29/21  3:40p   58.9   59.4   58.9    92   56.6  15.0   ENE   2.50  26.0     E   53.3   59.2   53.6   61.6  30.027  0.00  0.00   644     9.23    715     3.5  0.25   3.7   0.042   0.000   61.5    77   54.2   61.4  15.35  .0753    0.000   200    7    100.0   10 
 7/29/21  3:50p   59.0   59.1   58.8    92   56.7  13.0   ENE   2.17  21.0    NE   54.1   59.3   54.4   62.5  30.027  0.00  0.00   588     8.43    621     3.2  0.23   3.3   0.042   0.000   61.5    77   54.2   61.4  15.35  .0753    0.000   201    7    100.0   10 
 7/29/21  4:00p   59.0   59.0   58.9    92   56.7  13.0   ENE   2.17  23.0    NE   54.1   59.3   54.4   61.9  30.024  0.00  0.00   520     7.45    582     2.8  0.20   3.0   0.042   0.000   61.6    78   54.7   61.6  15.68  .0753    0.014   200    7    100.0   10 
 7/29/21  4:10p   58.8   59.0   58.8    92   56.5  12.0    NE   2.00  20.0    NE   54.4   59.1   54.7   61.9  30.024  0.00  0.00   468     6.71    524     2.5  0.18   2.7   0.043   0.000   61.6    78   54.7   61.6  15.68  .0753    0.000   204    7    100.0   10 
 7/29/21  4:20p   58.8   58.9   58.7    93   56.8  10.0   ENE   1.67  19.0   ENE   55.6   59.1   55.9   63.2  30.022  0.00  0.00   428     6.14    468     2.2  0.16   2.4   0.043   0.000   61.7    77   54.4   61.6  15.35  .0753    0.000   202    7    100.0   10 
 7/29/21  4:30p   58.9   59.0   58.8    92   56.6  12.0   ENE   2.00  20.0    NE   54.5   59.2   54.8   61.1  30.021  0.00  0.00   390     5.59    410     2.0  0.14   2.1   0.042   0.000   61.8    77   54.5   61.7  15.35  .0753    0.000   203    7    100.0   10 
 7/29/21  4:40p   58.9   59.1   58.9    93   56.9  12.0    NE   2.00  20.0   NNE   54.5   59.2   54.8   60.5  30.023  0.00  0.00   346     4.96    378     1.7  0.12   1.8   0.042   0.000   62.0    78   55.1   62.0  15.69  .0752    0.000   203    7    100.0   10 
 7/29/21  4:50p   59.1   59.1   58.9    93   57.1  12.0    NE   2.00  21.0   ENE   54.7   59.4   55.0   59.9  30.022  0.00  0.00   292     4.19    301     1.4  0.10   1.5   0.041   0.000   62.1    79   55.5   62.2  16.13  .0752    0.000   204    7    100.0   10 
 7/29/21  5:00p   59.3   59.3   59.1    94   57.6  12.0    NE   2.00  18.0    NE   55.0   59.7   55.4   60.1  30.022  0.00  0.00   271     3.88    295     1.2  0.09   1.3   0.040   0.000   62.2    79   55.6   62.3  16.14  .0752    0.008   203    7    100.0   10 
 7/29/21  5:10p   59.5   59.5   59.2    94   57.8  11.0   ENE   1.83  19.0     N   55.8   59.9   56.2   60.6  30.021  0.00  0.00   245     3.51    285     1.1  0.08   1.3   0.038   0.000   63.1    78   56.1   63.3  15.71  .0750    0.000   204    7    100.0   10 
 7/29/21  5:20p   59.5   59.7   59.5    94   57.8  10.0    NE   1.67  17.0     E   56.4   59.9   56.8   60.7  30.018  0.00  0.00   207     2.97    230     0.9  0.06   1.0   0.038   0.000   64.1    76   56.4   64.3  14.87  .0749    0.000   203    7    100.0   10 
 7/29/21  5:30p   58.9   59.5   58.9    94   57.2  10.0    NE   1.67  18.0   NNE   55.7   59.3   56.1   60.1  30.018  0.00  0.00   203     2.91    220     0.8  0.06   0.9   0.042   0.000   64.9    75   56.8   65.2  14.45  .0747    0.000   204    7    100.0   10 
 7/29/21  5:40p   58.9   59.0   58.8    95   57.5  11.0    NE   1.83  19.0   ENE   55.1   59.3   55.5   59.3  30.018  0.00  0.00   199     2.85    209     0.8  0.06   0.8   0.042   0.000   65.5    73   56.6   65.8  14.04  .0746    0.000   203    7    100.0   10 
 7/29/21  5:50p   59.4   59.4   58.9    95   58.0  10.0   ENE   1.67  20.0   ENE   56.3   59.8   56.7   60.2  30.018  0.00  0.00   176     2.52    199     0.6  0.04   0.7   0.039   0.000   66.0    72   56.7   66.3  13.75  .0746    0.000   202    7    100.0   10 
 7/29/21  6:00p   59.5   59.6   59.3    95   58.1  11.0   ENE   1.83  20.0     E   55.8   59.9   56.2   59.2  30.018  0.00  0.00   153     2.19    185     0.5  0.04   0.6   0.038   0.000   66.3    71   56.6   66.6  13.52  .0745    0.004   203    7    100.0   10 
 7/29/21  6:10p   59.7   59.7   59.5    95   58.3  13.0   ENE   2.17  23.0     N   54.9   60.1   55.3   58.2  30.018  0.00  0.00   149     2.14    169     0.4  0.03   0.5   0.037   0.000   66.6    71   56.9   67.0  13.52  .0745    0.000   200    7    100.0   10 
 7/29/21  6:20p   59.7   59.8   59.7    95   58.3  12.0   ENE   2.00  23.0     N   55.4   60.1   55.8   57.9  30.016  0.00  0.00   116     1.66    130     0.0  0.00   0.0   0.037   0.000   66.9    70   56.8   67.3  13.27  .0744    0.000   203    7    100.0   10 
 7/29/21  6:30p   59.7   59.8   59.7    96   58.6  10.0   ENE   1.67  17.0     N   56.6   60.1   57.0   58.8  30.014  0.00  0.00    98     1.40    118     0.0  0.00   0.0   0.037   0.000   67.1    69   56.6   67.4  12.97  .0744    0.000   202    7    100.0   10 
 7/29/21  6:40p   59.8   59.8   59.7    96   58.7  10.0    NE   1.67  19.0     N   56.8   60.2   57.2   58.8  30.013  0.00  0.00    88     1.26     93     0.0  0.00   0.0   0.036   0.000   67.3    69   56.8   67.7  12.96  .0744    0.000   204    7    100.0   10 
 7/29/21  6:50p   59.7   59.8   59.6    96   58.6  11.0   ENE   1.83  19.0    NE   56.0   60.1   56.4   57.8  30.013  0.00  0.00    82     1.18     95     0.0  0.00   0.0   0.037   0.000   67.4    69   56.9   67.8  12.95  .0744    0.000   203    7    100.0   10 
 7/29/21  7:00p   59.5   59.6   59.4    96   58.4  12.0   ENE   2.00  25.0   ENE   55.2   59.9   55.6   56.7  30.008  0.00  0.00    71     1.02     84     0.0  0.00   0.0   0.038   0.000   67.6    68   56.7   68.0  12.65  .0743    0.002   205    7    100.0   10 
 7/29/21  7:10p   59.4   59.5   59.4    96   58.3  10.0   ENE   1.67  20.0     N   56.3   59.8   56.7   57.6  30.008  0.00  0.00    59     0.85     67     0.0  0.00   0.0   0.039   0.000   67.7    68   56.8   68.1  12.64  .0743    0.000   203    7    100.0   10 
 7/29/21  7:20p   59.1   59.5   59.1    96   58.0  10.0   ENE   1.67  19.0   NNE   55.9   59.5   56.3   56.9  30.011  0.00  0.00    52     0.75     56     0.0  0.00   0.0   0.041   0.000   67.8    68   56.9   68.2  12.64  .0743    0.000   203    7    100.0   10 
 7/29/21  7:30p   59.0   59.1   59.0    96   57.9  11.0   ENE   1.83  25.0   ENE   55.2   59.4   55.6   55.9  30.010  0.00  0.00    45     0.65     47     0.0  0.00   0.0   0.042   0.000   67.9    67   56.5   68.2  12.39  .0743    0.000   204    7    100.0   10 
 7/29/21  7:40p   58.8   59.0   58.8    96   57.7   9.0   ENE   1.50  19.0   NNE   56.3   59.2   56.7   56.8  30.011  0.00  0.00    37     0.53     42     0.0  0.00   0.0   0.043   0.000   68.0    67   56.6   68.4  12.39  .0743    0.000   204    7    100.0   10 
 7/29/21  7:50p   58.5   58.8   58.5    96   57.4  10.0   ENE   1.67  19.0     E   55.2   58.9   55.6   54.2  30.013  0.00  0.00    30     0.43     33     0.0  0.00   0.0   0.045   0.000   68.1    67   56.7   68.4  12.39  .0743    0.000   202    7    100.0   10 
 7/29/21  8:00p   58.2   58.5   58.2    96   57.1  12.0   ENE   2.00  24.0   NNE   53.7   58.5   54.0   52.6  30.012  0.00  0.00    24     0.34     30     0.0  0.00   0.0   0.047   0.000   68.2    67   56.8   68.5  12.39  .0742    0.001   203    7    100.0   10 
 7/29/21  8:10p   57.7   58.2   57.7    96   56.6  12.0    NE   2.00  23.0   ENE   53.1   58.0   53.4   51.8  30.015  0.00  0.00    18     0.26     21     0.0  0.00   0.0   0.051   0.000   68.2    67   56.8   68.5  12.39  .0742    0.000   201    7    100.0   10 
 7/29/21  8:20p   57.7   57.7   57.5    97   56.9  11.0   ENE   1.83  19.0   ENE   53.7   58.0   54.0   52.3  30.013  0.00  0.00    13     0.19     16     0.0  0.00   0.0   0.051   0.000   68.3    66   56.5   68.5  12.15  .0742    0.000   203    7    100.0   10 
 7/29/21  8:30p   57.3   57.7   57.3    97   56.5  11.0   ENE   1.83  20.0     N   53.2   57.6   53.5   51.7  30.013  0.00  0.00     8     0.11      9     0.0  0.00   0.0   0.053   0.000   68.3    66   56.5   68.5  12.15  .0742    0.000   201    7    100.0   10 
 7/29/21  8:40p   57.5   57.5   57.4    97   56.7  12.0    NE   2.00  24.0     E   52.9   57.8   53.2   51.4  30.012  0.00  0.00     3     0.04      5     0.0  0.00   0.0   0.052   0.000   68.4    66   56.6   68.6  12.15  .0742    0.000   203    7    100.0   10 
 7/29/21  8:50p   57.1   57.5   57.1    97   56.3  13.0   ENE   2.17  19.0   ENE   52.0   57.4   52.3   50.5  30.015  0.00  0.00     0     0.00      0     0.0  0.00   0.0   0.055   0.000   68.4    66   56.6   68.6  12.15  .0742    0.000   205    7    100.0   10 
 7/29/21  9:00p   56.8   57.1   56.8    97   56.0  12.0   ENE   2.00  19.0     E   52.1   57.1   52.4   50.5  30.022  0.00  0.00     0     0.00      0     0.0  0.00   0.0   0.057   0.000   68.5    66   56.7   68.6  12.15  .0742    0.000   204    7    100.0   10 
 7/29/21  9:10p   56.9   56.9   56.8    97   56.1  11.0   ENE   1.83  21.0     N   52.8   57.2   53.1   51.1  30.026  0.00  0.00     0     0.00      0     0.0  0.00   0.0   0.056   0.000   68.5    66   56.7   68.6  12.15  .0742    0.000   204    7    100.0   10 
 7/29/21  9:20p   56.8   56.9   56.8    97   56.0  12.0   ENE   2.00  19.0    NE   52.1   57.1   52.4   50.5  30.023  0.00  0.00     0     0.00      0     0.0  0.00   0.0   0.057   0.000   68.5    66   56.7   68.6  12.15  .0742    0.000   203    7    100.0   10 
 7/29/21  9:30p   56.7   56.9   56.7    97   55.9  10.0   ENE   1.67  18.0     N   53.1   57.0   53.4   51.4  30.028  0.00  0.00     0     0.00      0     0.0  0.00   0.0   0.058   0.000   68.5    65   56.3   68.6  11.88  .0743    0.000   202    7    100.0   10 
Email: AdamSPAM@StormwatchersRetreat.com (To send me email remove the word 'SPAM' from my email address.)